Time;durP1;ratioP1;P1;durP2;ratioP2;P2;SDS_P1;SDS_P2;PMS_P1;PMS_P2;Temp;Humidity;BMP_temperature;BMP_pressure;BME280_temperature;BME280_humidity;BME280_pressure;Samples;Min_cycle;Max_cycle;Signal;HPM_P1;HPM_P2
2021/04/15 00:02:14;;;;;;;1.88;1.10;;;9.50;99.90;;;;;;5035939;28;20207;-72
2021/04/15 00:04:40;;;;;;;2.10;1.13;;;9.50;99.90;;;;;;5034333;28;20210;-72
2021/04/15 00:07:06;;;;;;;1.38;0.90;;;9.50;99.90;;;;;;5044978;28;20202;-72
2021/04/15 00:09:32;;;;;;;1.80;1.27;;;9.40;99.90;;;;;;5048439;28;20199;-72
2021/04/15 00:11:59;;;;;;;1.08;0.90;;;9.40;99.90;;;;;;5052451;28;20199;-72
2021/04/15 00:14:25;;;;;;;1.00;0.80;;;9.40;99.90;;;;;;5051082;28;20206;-72
2021/04/15 00:16:52;;;;;;;1.70;1.20;;;9.40;99.90;;;;;;5041251;28;20207;-72
2021/04/15 00:19:19;;;;;;;3.58;1.20;;;9.40;99.90;;;;;;5043476;28;20191;-72
2021/04/15 00:21:46;;;;;;;1.25;0.90;;;9.40;99.90;;;;;;5051595;28;20631;-73
2021/04/15 00:24:12;;;;;;;2.22;0.90;;;9.40;99.90;;;;;;5051991;28;20210;-72
2021/04/15 00:26:38;;;;;;;1.17;1.00;;;9.40;99.90;;;;;;5046658;28;20250;-72
2021/04/15 00:29:05;;;;;;;3.33;1.02;;;9.40;99.90;;;;;;5034816;28;20282;-72
2021/04/15 00:31:31;;;;;;;3.40;1.10;;;9.40;99.90;;;;;;5032788;28;20255;-72
2021/04/15 00:33:58;;;;;;;1.70;0.90;;;9.30;99.90;;;;;;5037083;28;20198;-72
2021/04/15 00:36:26;;;;;;;1.50;0.95;;;9.30;99.90;;;;;;5042694;28;20207;-72
2021/04/15 00:38:52;;;;;;;1.88;1.17;;;9.30;99.90;;;;;;5038632;28;20540;-72
2021/04/15 00:41:19;;;;;;;2.17;1.10;;;9.30;99.90;;;;;;5040080;28;20191;-72
2021/04/15 00:43:46;;;;;;;2.28;1.00;;;9.30;99.90;;;;;;5039355;28;20196;-72
2021/04/15 00:46:39;;;;;;;1.30;1.00;;;9.20;99.90;;;;;;5032381;28;20200;-72
2021/04/15 00:49:06;;;;;;;1.30;0.80;;;9.20;99.90;;;;;;5039847;28;20294;-72
2021/04/15 00:51:39;;;;;;;2.20;1.10;;;9.20;99.90;;;;;;5032951;28;20214;-72
2021/04/15 00:54:09;;;;;;;1.70;1.02;;;9.20;99.90;;;;;;5046920;28;20476;-72
2021/04/15 00:56:36;;;;;;;2.00;1.33;;;9.20;99.90;;;;;;5051177;28;20222;-72
2021/04/15 00:59:04;;;;;;;2.20;1.00;;;9.20;99.90;;;;;;5050243;28;20186;-72
2021/04/15 01:01:31;;;;;;;2.00;1.35;;;9.20;99.90;;;;;;5042181;28;20196;-72
2021/04/15 01:03:57;;;;;;;1.35;0.82;;;9.20;99.90;;;;;;5032907;28;20259;-72
2021/04/15 01:06:24;;;;;;;1.10;1.00;;;9.10;99.90;;;;;;5040172;28;20203;-72
2021/04/15 01:08:52;;;;;;;1.80;1.20;;;9.20;99.90;;;;;;5032171;28;20216;-72
2021/04/15 01:11:40;;;;;;;2.22;1.25;;;9.10;99.90;;;;;;5039183;28;20199;-72
2021/04/15 01:14:13;;;;;;;3.40;1.08;;;9.10;99.90;;;;;;5031997;28;20219;-72
2021/04/15 01:16:48;;;;;;;1.30;1.00;;;9.10;99.90;;;;;;5043135;28;20209;-71
2021/04/15 01:19:39;;;;;;;1.05;0.90;;;9.10;99.90;;;;;;5036474;28;20252;-72
2021/04/15 01:22:32;;;;;;;1.95;1.27;;;9.10;99.90;;;;;;5035030;28;20191;-73
2021/04/15 01:25:08;;;;;;;1.13;1.00;;;9.10;99.90;;;;;;5032491;28;20274;-72
2021/04/15 01:27:42;;;;;;;1.20;0.98;;;9.10;99.90;;;;;;5039526;28;20234;-73
2021/04/15 01:30:16;;;;;;;2.50;1.00;;;9.00;99.90;;;;;;5043726;28;20799;-72
2021/04/15 01:32:50;;;;;;;2.00;1.10;;;9.00;99.90;;;;;;5037388;28;20195;-72
2021/04/15 01:35:23;;;;;;;1.67;1.20;;;9.00;99.90;;;;;;5048909;28;20203;-72
2021/04/15 01:37:52;;;;;;;3.33;1.60;;;9.00;99.90;;;;;;5042306;28;20245;-73
2021/04/15 01:40:25;;;;;;;2.17;1.30;;;9.00;99.90;;;;;;5043761;28;20190;-72
2021/04/15 01:42:56;;;;;;;1.60;1.20;;;8.90;99.90;;;;;;5049372;28;20639;-72
2021/04/15 01:45:23;;;;;;;1.23;1.10;;;8.90;99.90;;;;;;5040700;28;20537;-73
2021/04/15 01:47:54;;;;;;;1.85;1.10;;;8.90;99.90;;;;;;5031239;28;20216;-73
2021/04/15 01:50:24;;;;;;;1.45;1.30;;;8.90;99.90;;;;;;5031760;28;20203;-72
2021/04/15 01:52:54;;;;;;;1.40;1.30;;;8.90;99.90;;;;;;5037416;28;20199;-72
2021/04/15 01:55:27;;;;;;;1.90;1.67;;;8.80;99.90;;;;;;5041823;28;20183;-73
2021/04/15 01:58:02;;;;;;;1.45;1.25;;;8.80;99.90;;;;;;5040445;28;20193;-72
2021/04/15 02:00:33;;;;;;;2.15;1.40;;;8.90;99.90;;;;;;5047882;28;20194;-72
2021/04/15 02:03:03;;;;;;;1.60;1.50;;;8.90;99.90;;;;;;5046014;28;20198;-72
2021/04/15 02:05:32;;;;;;;2.90;1.40;;;8.90;99.90;;;;;;5046526;28;20202;-72
2021/04/15 02:08:05;;;;;;;2.70;1.75;;;8.90;99.90;;;;;;5049770;28;20219;-72
2021/04/15 02:10:33;;;;;;;1.42;1.30;;;8.90;99.90;;;;;;5050373;28;20646;-72
2021/04/15 02:13:05;;;;;;;1.83;1.25;;;8.90;99.90;;;;;;5036117;28;20230;-72
2021/04/15 02:15:43;;;;;;;3.90;1.60;;;8.80;99.90;;;;;;5039352;28;20207;-72
2021/04/15 02:18:10;;;;;;;2.22;1.27;;;8.80;99.90;;;;;;5030694;28;20195;-72
2021/04/15 02:20:36;;;;;;;1.90;1.17;;;8.80;99.90;;;;;;5031164;28;20219;-71
2021/04/15 02:23:07;;;;;;;1.30;1.10;;;8.80;99.90;;;;;;5031423;28;20191;-71
2021/04/15 02:25:40;;;;;;;1.95;1.67;;;8.80;99.90;;;;;;5040241;28;20199;-71
2021/04/15 02:28:10;;;;;;;1.90;1.30;;;8.70;99.90;;;;;;5039273;28;20261;-71
2021/04/15 02:30:42;;;;;;;1.50;1.10;;;8.70;99.90;;;;;;5041670;28;20195;-72
2021/04/15 02:33:15;;;;;;;1.20;1.10;;;8.70;99.90;;;;;;5031000;28;20239;-71
2021/04/15 02:35:44;;;;;;;1.65;1.23;;;8.70;99.90;;;;;;5039164;28;20211;-71
2021/04/15 02:38:11;;;;;;;2.08;1.42;;;8.70;99.90;;;;;;5049494;28;20195;-71
2021/04/15 02:40:42;;;;;;;2.05;1.33;;;8.70;99.90;;;;;;5048186;28;20631;-71
2021/04/15 02:43:15;;;;;;;2.05;1.80;;;8.70;99.90;;;;;;5039486;28;20198;-72
2021/04/15 02:45:48;;;;;;;3.65;1.60;;;8.70;99.90;;;;;;5050653;28;20190;-71
2021/04/15 02:48:19;;;;;;;1.75;1.55;;;8.70;99.90;;;;;;5045196;28;20210;-71
2021/04/15 02:50:45;;;;;;;2.17;1.95;;;8.70;99.90;;;;;;5047855;28;20206;-71
2021/04/15 02:53:15;;;;;;;2.90;1.45;;;8.70;99.90;;;;;;5038436;28;20622;-71
2021/04/15 02:55:49;;;;;;;2.05;1.60;;;8.70;99.90;;;;;;5040227;28;20199;-71
2021/04/15 02:58:20;;;;;;;4.35;1.65;;;8.70;99.90;;;;;;5046747;28;20188;-70
2021/04/15 03:00:49;;;;;;;1.30;1.20;;;8.70;99.90;;;;;;5033954;28;20613;-71
2021/04/15 03:03:19;;;;;;;3.03;1.50;;;8.70;99.90;;;;;;5041753;28;20536;-72
2021/04/15 03:05:49;;;;;;;2.38;1.67;;;8.60;99.90;;;;;;5032654;28;20195;-71
2021/04/15 03:08:19;;;;;;;1.75;1.33;;;8.60;99.90;;;;;;5033988;28;20219;-71
2021/04/15 03:10:50;;;;;;;3.90;1.98;;;8.60;99.90;;;;;;5039378;28;20211;-72
2021/04/15 03:13:20;;;;;;;3.22;2.00;;;8.60;99.90;;;;;;5033529;28;20194;-71
2021/04/15 03:15:50;;;;;;;2.53;2.25;;;8.60;99.90;;;;;;5036310;28;20203;-71
2021/04/15 03:18:20;;;;;;;2.97;1.70;;;8.60;99.90;;;;;;5030658;28;20210;-72
2021/04/15 03:20:50;;;;;;;1.88;1.70;;;8.60;99.90;;;;;;5037336;28;20191;-71
2021/04/15 03:23:26;;;;;;;2.28;1.65;;;8.60;99.90;;;;;;5047307;28;20199;-71
2021/04/15 03:25:55;;;;;;;1.60;1.40;;;8.50;99.90;;;;;;5045228;28;20207;-71
2021/04/15 03:28:28;;;;;;;1.98;1.77;;;8.60;99.90;;;;;;5043587;28;20214;-71
2021/04/15 03:30:59;;;;;;;1.60;1.50;;;8.50;99.90;;;;;;5049862;28;20203;-71
2021/04/15 03:33:29;;;;;;;2.30;1.52;;;8.50;99.90;;;;;;5033170;28;20262;-71
2021/04/15 03:36:01;;;;;;;3.03;1.60;;;8.50;99.90;;;;;;5039795;28;20207;-71
2021/04/15 03:38:32;;;;;;;6.55;1.92;;;8.50;99.90;;;;;;5040960;28;20222;-72
2021/04/15 03:41:04;;;;;;;1.95;1.27;;;8.50;99.90;;;;;;5042209;28;20195;-72
2021/04/15 03:43:36;;;;;;;4.40;1.92;;;8.40;99.90;;;;;;5041941;28;20195;-71
2021/04/15 03:46:10;;;;;;;2.05;1.85;;;8.40;99.90;;;;;;5043717;28;20619;-72
2021/04/15 03:48:42;;;;;;;2.30;1.77;;;8.40;99.90;;;;;;5041391;28;20203;-72
2021/04/15 03:51:12;;;;;;;1.92;1.65;;;8.40;99.90;;;;;;5051175;28;20225;-72
2021/04/15 03:53:41;;;;;;;2.42;1.95;;;8.40;99.90;;;;;;5034247;28;20563;-72
2021/04/15 03:56:15;;;;;;;1.90;1.70;;;8.40;99.90;;;;;;5036766;28;20206;-72
2021/04/15 03:58:43;;;;;;;2.03;1.83;;;8.30;99.90;;;;;;5052583;28;20250;-72
2021/04/15 04:01:15;;;;;;;2.53;2.13;;;8.30;99.90;;;;;;5035591;28;20199;-72
2021/04/15 04:03:43;;;;;;;3.00;1.95;;;8.30;99.90;;;;;;5033857;28;20230;-72
2021/04/15 04:06:14;;;;;;;2.35;2.05;;;8.30;99.90;;;;;;5040194;28;20214;-72
2021/04/15 04:08:45;;;;;;;2.50;1.85;;;8.30;99.90;;;;;;5035752;28;20353;-72
2021/04/15 04:11:14;;;;;;;3.30;2.40;;;8.30;99.90;;;;;;5033550;28;20195;-71
2021/04/15 04:13:43;;;;;;;2.40;2.20;;;8.30;99.90;;;;;;5048675;28;20297;-72
2021/04/15 04:16:18;;;;;;;3.45;1.95;;;8.20;99.90;;;;;;5044650;28;20202;-72
2021/04/15 04:18:51;;;;;;;3.05;2.45;;;8.20;99.90;;;;;;5041280;28;20213;-72
2021/04/15 04:21:20;;;;;;;2.45;2.00;;;8.20;99.90;;;;;;5043091;28;20192;-72
2021/04/15 04:23:51;;;;;;;2.92;2.20;;;8.10;99.90;;;;;;5033331;28;20200;-72
2021/04/15 04:26:22;;;;;;;2.47;2.13;;;8.10;99.90;;;;;;5039685;28;20200;-71
2021/04/15 04:29:06;;;;;;;2.58;2.13;;;8.20;99.90;;;;;;5036977;28;20567;-71
2021/04/15 04:31:37;;;;;;;4.30;2.03;;;8.10;99.90;;;;;;5042111;28;20199;-71
2021/04/15 04:34:04;;;;;;;1.73;1.63;;;8.10;99.90;;;;;;5050810;28;20198;-72
2021/04/15 04:36:34;;;;;;;2.22;1.92;;;8.10;99.90;;;;;;5034281;28;20199;-72
2021/04/15 04:39:00;;;;;;;1.73;1.45;;;8.10;99.90;;;;;;5036271;28;20278;-72
2021/04/15 04:41:32;;;;;;;3.40;2.58;;;8.10;99.90;;;;;;5051243;28;20199;-71
2021/04/15 04:44:03;;;;;;;3.80;2.90;;;8.10;99.90;;;;;;5051557;28;20199;-71
2021/04/15 04:46:38;;;;;;;4.07;2.00;;;8.10;99.90;;;;;;5040304;28;20203;-71
2021/04/15 04:49:10;;;;;;;4.13;2.00;;;8.00;99.90;;;;;;5032069;28;20296;-72
2021/04/15 04:51:45;;;;;;;2.30;2.10;;;8.00;99.90;;;;;;5032674;28;20261;-72
2021/04/15 04:54:11;;;;;;;8.38;2.45;;;8.00;99.90;;;;;;5037637;28;20674;-71
2021/04/15 04:56:43;;;;;;;3.08;2.10;;;8.00;99.90;;;;;;5051271;28;20766;-71
2021/04/15 04:59:15;;;;;;;5.90;2.38;;;8.00;99.90;;;;;;5038863;28;20697;-71
2021/04/15 05:01:42;;;;;;;3.63;2.58;;;7.90;99.90;;;;;;5032541;28;20291;-71
2021/04/15 05:04:09;;;;;;;3.30;3.00;;;8.00;99.90;;;;;;5032371;28;20274;-71
2021/04/15 05:06:40;;;;;;;3.50;2.20;;;8.00;99.90;;;;;;5038913;28;20195;-71
2021/04/15 05:09:11;;;;;;;2.30;2.10;;;8.00;99.90;;;;;;5043471;28;20678;-71
2021/04/15 05:11:40;;;;;;;3.42;2.70;;;7.80;99.90;;;;;;5042934;28;20198;-71
2021/04/15 05:14:07;;;;;;;5.68;2.33;;;7.90;99.90;;;;;;5050066;28;20202;-71
2021/04/15 05:16:38;;;;;;;2.15;1.95;;;7.90;99.90;;;;;;5050422;28;20213;-71
2021/04/15 05:19:05;;;;;;;3.33;2.67;;;7.90;99.90;;;;;;5036648;28;20196;-72
2021/04/15 05:21:33;;;;;;;2.83;2.20;;;7.90;99.90;;;;;;5033752;28;20210;-72
2021/04/15 05:24:08;;;;;;;5.22;2.60;;;7.90;99.90;;;;;;5048058;28;20262;-72
2021/04/15 05:26:37;;;;;;;4.10;2.05;;;7.90;99.90;;;;;;5035924;28;20229;-72
2021/04/15 05:29:05;;;;;;;7.95;3.15;;;7.90;99.90;;;;;;5039093;28;20775;-72
2021/04/15 05:31:37;;;;;;;3.17;2.50;;;7.90;99.90;;;;;;5044317;28;20203;-72
2021/04/15 05:34:12;;;;;;;2.83;2.47;;;7.90;99.90;;;;;;5042864;28;20246;-72
2021/04/15 05:36:40;;;;;;;4.60;2.92;;;7.90;99.90;;;;;;5040282;28;20197;-71
2021/04/15 05:39:10;;;;;;;4.47;4.18;;;7.90;99.90;;;;;;5051746;28;20198;-71
2021/04/15 05:41:45;;;;;;;4.85;3.33;;;7.90;99.90;;;;;;5041146;28;20200;-71
2021/04/15 05:44:16;;;;;;;2.97;2.72;;;8.00;99.90;;;;;;5048390;28;20252;-71
2021/04/15 05:46:45;;;;;;;3.25;2.80;;;8.00;99.90;;;;;;5042190;28;20200;-71
2021/04/15 05:49:17;;;;;;;4.63;3.20;;;8.00;99.90;;;;;;5030735;28;20219;-71
2021/04/15 05:51:47;;;;;;;6.72;2.92;;;8.00;99.90;;;;;;5036037;28;20195;-71
2021/04/15 05:54:16;;;;;;;6.25;3.50;;;8.10;99.90;;;;;;5038876;28;20648;-71
2021/04/15 05:56:58;;;;;;;6.20;2.72;;;8.30;99.90;;;;;;5030736;28;20206;-71
2021/04/15 05:59:34;;;;;;;3.03;2.70;;;8.50;99.90;;;;;;5032192;28;20737;-71
2021/04/15 06:02:17;;;;;;;3.03;2.72;;;8.80;99.90;;;;;;5036563;28;20650;-71
2021/04/15 06:04:51;;;;;;;4.57;2.90;;;9.00;99.90;;;;;;5033805;28;20513;-71
2021/04/15 06:07:21;;;;;;;4.68;2.75;;;9.20;99.90;;;;;;5042114;28;20516;-71
2021/04/15 06:09:49;;;;;;;4.53;3.65;;;9.40;99.80;;;;;;5031927;28;20660;-71
2021/04/15 06:12:21;;;;;;;2.55;2.35;;;9.50;99.30;;;;;;5050579;28;20206;-72
2021/04/15 06:15:01;;;;;;;3.42;2.60;;;9.70;98.70;;;;;;5050349;28;20218;-71
2021/04/15 06:17:31;;;;;;;4.30;2.55;;;9.90;98.30;;;;;;5035857;28;20198;-71
2021/04/15 06:20:04;;;;;;;3.30;3.03;;;10.00;97.20;;;;;;5050943;28;20215;-70
2021/04/15 06:22:32;;;;;;;3.47;3.17;;;10.10;96.80;;;;;;5049169;28;20206;-70
2021/04/15 06:25:05;;;;;;;4.15;2.72;;;10.30;96.40;;;;;;5051465;28;20202;-70
2021/04/15 06:27:32;;;;;;;3.17;2.20;;;10.40;95.90;;;;;;5035123;28;20243;-70
2021/04/15 06:30:05;;;;;;;3.72;2.65;;;10.50;95.50;;;;;;5040823;28;20245;-70
2021/04/15 06:32:39;;;;;;;2.90;2.60;;;10.60;95.20;;;;;;5047022;28;20191;-71
2021/04/15 06:35:08;;;;;;;2.78;2.50;;;10.70;94.80;;;;;;5047340;28;20213;-71
2021/04/15 06:37:40;;;;;;;5.30;2.75;;;10.80;94.50;;;;;;5049264;28;20191;-71
2021/04/15 06:40:45;;;;;;;6.00;2.70;;;10.90;94.20;;;;;;5049353;28;20270;-71
2021/04/15 06:43:24;;;;;;;2.47;2.28;;;11.10;93.90;;;;;;4985475;28;20195;-71
2021/04/15 06:46:05;;;;;;;3.20;2.45;;;11.10;93.50;;;;;;5037928;28;20195;-70
2021/04/15 06:48:52;;;;;;;3.15;2.85;;;11.20;93.40;;;;;;5032617;28;20671;-70
2021/04/15 06:51:38;;;;;;;3.80;2.55;;;11.30;93.20;;;;;;5032211;28;20254;-72
2021/04/15 06:54:17;;;;;;;5.05;2.88;;;11.30;92.90;;;;;;5029251;28;20207;-71
2021/04/15 06:56:59;;;;;;;4.60;3.42;;;11.40;92.70;;;;;;5038834;28;20182;-70
2021/04/15 06:59:49;;;;;;;9.57;2.60;;;11.50;92.50;;;;;;5053587;28;20582;-70
2021/04/15 07:02:32;;;;;;;3.90;2.80;;;11.60;92.30;;;;;;5036368;28;20199;-71
2021/04/15 07:05:02;;;;;;;3.13;2.38;;;11.60;92.00;;;;;;5041091;28;20198;-70
2021/04/15 07:07:33;;;;;;;3.10;2.13;;;11.70;92.10;;;;;;5039366;28;20545;-69
2021/04/15 07:10:28;;;;;;;6.38;2.67;;;11.80;92.00;;;;;;5039466;28;20728;-70
2021/04/15 07:13:29;;;;;;;2.22;2.03;;;11.80;91.80;;;;;;5038396;28;20228;-71
2021/04/15 07:16:28;;;;;;;4.35;2.55;;;11.90;91.60;;;;;;5042975;28;20201;-70
2021/04/15 07:19:35;;;;;;;3.03;2.75;;;12.00;91.40;;;;;;5046601;28;20333;-70
2021/04/15 07:22:27;;;;;;;3.13;2.70;;;12.10;91.30;;;;;;5040944;28;20551;-70
2021/04/15 07:25:09;;;;;;;6.30;3.80;;;12.10;91.30;;;;;;5039488;28;20230;-71
2021/04/15 07:28:04;;;;;;;5.53;2.72;;;12.10;91.10;;;;;;5038571;28;20226;-70
2021/04/15 07:31:05;;;;;;;4.35;2.95;;;12.20;90.90;;;;;;5037902;28;20250;-70
2021/04/15 07:33:54;;;;;;;5.95;2.88;;;12.30;90.80;;;;;;5003994;28;20210;-71
2021/04/15 07:36:37;;;;;;;5.82;3.50;;;12.30;90.80;;;;;;5036889;28;20210;-70
2021/04/15 07:39:21;;;;;;;4.47;3.20;;;12.30;90.40;;;;;;5040074;28;20187;-70
2021/04/15 07:42:06;;;;;;;7.40;3.20;;;12.30;90.80;;;;;;5039991;28;20201;-71
2021/04/15 07:44:37;;;;;;;6.05;3.45;;;12.40;90.60;;;;;;5038922;28;20202;-71
2021/04/15 07:47:21;;;;;;;5.20;3.10;;;12.40;90.60;;;;;;5041435;28;20202;-71
2021/04/15 07:50:16;;;;;;;2.72;2.20;;;12.40;90.40;;;;;;5038078;28;20219;-71
2021/04/15 07:53:10;;;;;;;4.68;2.70;;;12.40;90.30;;;;;;5046645;28;20195;-71
2021/04/15 07:56:34;;;;;;;3.85;2.30;;;12.50;90.50;;;;;;5046088;28;20207;-70
2021/04/15 07:59:40;;;;;;;6.32;2.50;;;12.60;90.40;;;;;;5042016;28;20206;-70
2021/04/15 08:02:30;;;;;;;6.25;2.72;;;12.70;90.10;;;;;;5037761;28;20215;-70
2021/04/15 08:05:11;;;;;;;5.53;2.35;;;12.70;89.00;;;;;;5040103;28;20533;-70
2021/04/15 08:08:09;;;;;;;5.22;2.60;;;12.80;89.20;;;;;;5045335;28;20202;-70
2021/04/15 08:10:58;;;;;;;4.80;2.17;;;12.90;88.00;;;;;;5032158;28;20642;-70
2021/04/15 08:13:40;;;;;;;6.60;3.35;;;12.90;88.30;;;;;;5038538;28;20643;-70
2021/04/15 08:16:24;;;;;;;5.97;2.95;;;12.90;87.60;;;;;;5045645;28;20222;-71
2021/04/15 08:19:02;;;;;;;2.95;2.20;;;12.80;87.60;;;;;;5044180;28;20190;-70
2021/04/15 08:21:32;;;;;;;3.38;2.03;;;12.80;89.30;;;;;;5037023;28;20195;-70
2021/04/15 08:24:33;;;;;;;4.85;2.58;;;12.90;89.00;;;;;;5045244;28;20640;-70
2021/04/15 08:27:45;;;;;;;2.70;2.45;;;12.90;87.50;;;;;;4989467;28;20283;-70
2021/04/15 08:30:25;;;;;;;2.70;1.95;;;13.00;87.90;;;;;;4990789;28;20264;-70
2021/04/15 08:33:02;;;;;;;3.28;1.77;;;13.00;87.90;;;;;;5040033;28;20214;-70
2021/04/15 08:35:37;;;;;;;2.58;2.25;;;13.00;88.20;;;;;;5058610;28;20195;-70
2021/04/15 08:38:18;;;;;;;3.58;2.05;;;13.10;87.60;;;;;;5044801;28;20261;-70
2021/04/15 08:40:55;;;;;;;3.00;1.63;;;13.10;86.00;;;;;;5045359;28;20205;-71
2021/04/15 08:43:34;;;;;;;2.67;1.90;;;13.20;87.40;;;;;;5038302;28;20234;-71
2021/04/15 08:46:11;;;;;;;6.78;2.10;;;13.20;86.90;;;;;;5050122;28;20202;-71
2021/04/15 08:48:44;;;;;;;7.32;2.60;;;13.30;86.40;;;;;;5043546;28;20222;-71
2021/04/15 08:51:20;;;;;;;3.55;1.92;;;13.30;86.90;;;;;;5037974;28;20796;-71
2021/04/15 08:54:03;;;;;;;2.97;2.47;;;13.30;83.80;;;;;;5039530;28;20205;-71
2021/04/15 08:56:34;;;;;;;6.07;2.60;;;13.20;81.40;;;;;;5036253;28;20195;-71
2021/04/15 08:59:26;;;;;;;3.58;3.00;;;13.20;82.20;;;;;;5046613;28;20269;-71
2021/04/15 09:01:59;;;;;;;2.67;2.20;;;13.10;83.10;;;;;;5039708;28;20560;-71
2021/04/15 09:04:39;;;;;;;2.35;2.15;;;12.90;84.70;;;;;;5047824;28;20205;-71
2021/04/15 09:07:11;;;;;;;5.13;2.35;;;12.70;85.00;;;;;;5041265;28;20199;-71
2021/04/15 09:09:49;;;;;;;3.28;2.17;;;12.70;87.00;;;;;;5034691;28;20210;-71
2021/04/15 09:12:28;;;;;;;4.13;2.38;;;12.60;86.20;;;;;;5047745;28;20195;-71
2021/04/15 09:15:11;;;;;;;4.25;1.90;;;12.70;88.20;;;;;;5042878;28;20208;-71
2021/04/15 09:17:41;;;;;;;2.47;2.25;;;12.80;88.30;;;;;;5041433;28;20187;-71
2021/04/15 09:20:15;;;;;;;3.60;2.50;;;12.80;88.30;;;;;;5040460;28;20195;-71
2021/04/15 09:23:06;;;;;;;4.78;2.92;;;12.80;87.10;;;;;;5046404;28;20623;-71
2021/04/15 09:25:44;;;;;;;4.07;2.58;;;12.60;86.00;;;;;;5040299;28;20202;-71
2021/04/15 09:28:14;;;;;;;3.78;2.85;;;12.50;87.90;;;;;;5037974;28;20230;-71
2021/04/15 09:30:55;;;;;;;4.75;2.67;;;12.40;86.80;;;;;;5041384;28;20207;-71
2021/04/15 09:33:50;;;;;;;3.28;2.40;;;12.40;86.80;;;;;;5042804;28;20198;-71
2021/04/15 09:36:22;;;;;;;3.05;2.00;;;12.40;87.00;;;;;;5048537;28;20256;-71
2021/04/15 09:39:11;;;;;;;3.80;2.83;;;12.30;88.00;;;;;;5037752;28;20261;-71
2021/04/15 09:42:01;;;;;;;4.95;2.78;;;12.30;88.10;;;;;;5045740;28;20203;-71
2021/04/15 09:44:37;;;;;;;5.38;3.35;;;12.20;88.40;;;;;;5037096;28;20211;-71
2021/04/15 09:47:17;;;;;;;5.78;2.13;;;12.10;88.10;;;;;;5045364;28;20206;-71
2021/04/15 09:49:54;;;;;;;3.65;2.10;;;12.10;90.00;;;;;;5038700;28;20211;-71
2021/04/15 09:52:40;;;;;;;3.22;2.58;;;12.10;90.10;;;;;;5042839;28;20194;-71
2021/04/15 09:55:17;;;;;;;3.35;1.77;;;12.10;89.80;;;;;;5039423;28;20203;-71
2021/04/15 09:57:50;;;;;;;2.30;2.03;;;12.20;89.40;;;;;;5041485;28;20222;-71
2021/04/15 10:00:21;;;;;;;5.57;2.45;;;12.20;89.50;;;;;;5041508;28;20207;-71
2021/04/15 10:03:05;;;;;;;5.03;2.33;;;12.10;90.20;;;;;;5044815;28;20194;-71
2021/04/15 10:05:42;;;;;;;2.72;2.50;;;12.10;89.80;;;;;;5044516;28;20195;-71
2021/04/15 10:08:14;;;;;;;5.22;2.40;;;12.10;90.20;;;;;;5040005;28;20202;-71
2021/04/15 10:10:49;;;;;;;4.22;2.35;;;12.10;89.00;;;;;;5038090;28;20195;-72
2021/04/15 10:13:27;;;;;;;3.83;2.50;;;12.20;88.00;;;;;;5049779;28;20284;-72
2021/04/15 10:15:58;;;;;;;3.75;2.70;;;12.30;88.90;;;;;;5042395;28;20289;-71
2021/04/15 10:18:38;;;;;;;4.47;2.60;;;12.30;88.40;;;;;;5036500;28;20194;-71
2021/04/15 10:21:28;;;;;;;5.43;2.58;;;12.30;87.30;;;;;;5040066;28;20277;-71
2021/04/15 10:24:16;;;;;;;2.80;2.30;;;12.30;86.80;;;;;;5037179;28;20646;-70
2021/04/15 10:27:29;;;;;;;4.78;2.47;;;12.30;87.80;;;;;;5038392;28;20238;-70
2021/04/15 10:30:12;;;;;;;5.10;2.60;;;12.20;87.70;;;;;;5035235;28;20210;-70
2021/04/15 10:32:58;;;;;;;3.13;2.35;;;12.20;87.80;;;;;;5038282;28;20186;-70
2021/04/15 10:35:49;;;;;;;8.20;2.33;;;12.20;89.00;;;;;;5034801;28;20191;-70
2021/04/15 10:38:42;;;;;;;5.82;3.15;;;12.20;89.70;;;;;;5032636;28;20208;-70
2021/04/15 10:41:40;;;;;;;13.63;3.50;;;12.30;88.70;;;;;;5044868;28;20270;-70
2021/04/15 10:44:23;;;;;;;7.90;3.55;;;12.30;88.50;;;;;;5036127;28;20232;-70
2021/04/15 10:47:01;;;;;;;4.22;3.28;;;12.30;87.60;;;;;;5034150;28;20214;-69
2021/04/15 10:49:39;;;;;;;4.45;2.60;;;12.20;87.30;;;;;;5033539;28;20217;-72
2021/04/15 10:52:22;;;;;;;2.67;2.47;;;12.20;86.80;;;;;;5040539;28;20195;-71
2021/04/15 10:54:48;;;;;;;3.72;2.45;;;12.20;86.30;;;;;;5044027;28;20214;-71
2021/04/15 10:57:19;;;;;;;2.50;2.30;;;12.20;87.30;;;;;;5039678;28;20219;-72
2021/04/15 10:59:49;;;;;;;3.13;2.75;;;12.30;88.00;;;;;;5046185;28;20210;-72
2021/04/15 11:02:26;;;;;;;2.13;1.85;;;12.30;88.40;;;;;;5038877;28;20683;-71
2021/04/15 11:04:54;;;;;;;3.15;2.42;;;12.30;87.80;;;;;;5037560;28;20665;-71
2021/04/15 11:07:22;;;;;;;2.83;2.50;;;12.30;87.80;;;;;;5041363;28;20195;-70
2021/04/15 11:09:50;;;;;;;4.50;2.80;;;12.30;87.50;;;;;;5035186;28;20211;-71
2021/04/15 11:12:27;;;;;;;2.60;2.38;;;12.30;88.70;;;;;;5039130;28;20313;-70
2021/04/15 11:15:14;;;;;;;4.63;2.92;;;12.30;86.60;;;;;;5035602;28;20206;-71
2021/04/15 11:17:42;;;;;;;3.30;2.08;;;12.20;86.00;;;;;;5044261;28;20195;-71
2021/04/15 11:20:26;;;;;;;4.85;2.45;;;12.20;86.10;;;;;;5044007;28;20190;-72
2021/04/15 11:22:58;;;;;;;3.85;2.50;;;12.20;85.10;;;;;;5037210;28;20246;-72
2021/04/15 11:25:27;;;;;;;3.17;2.72;;;12.20;85.50;;;;;;5037181;28;20258;-69
2021/04/15 11:27:54;;;;;;;5.38;2.65;;;12.20;85.30;;;;;;5036199;28;20231;-71
2021/04/15 11:30:40;;;;;;;4.07;2.35;;;12.30;87.50;;;;;;5046282;28;20532;-71
2021/04/15 11:33:08;;;;;;;2.50;2.30;;;12.30;87.10;;;;;;5045584;28;20207;-70
2021/04/15 11:35:34;;;;;;;4.28;3.08;;;12.30;85.90;;;;;;5035567;28;20609;-70
2021/04/15 11:38:17;;;;;;;2.92;2.63;;;12.40;85.60;;;;;;5034316;28;20640;-69
2021/04/15 11:40:46;;;;;;;4.60;2.30;;;12.40;85.90;;;;;;5034617;28;20249;-71
2021/04/15 11:43:25;;;;;;;3.22;2.58;;;12.40;85.90;;;;;;5040095;28;20199;-71
2021/04/15 11:45:54;;;;;;;6.00;2.97;;;12.30;82.50;;;;;;5044232;28;20218;-70
2021/04/15 11:48:23;;;;;;;3.20;1.98;;;12.30;82.30;;;;;;5043047;28;20265;-70
2021/04/15 11:50:52;;;;;;;7.57;2.85;;;12.30;83.10;;;;;;5043953;28;20203;-71
2021/04/15 11:53:26;;;;;;;5.28;2.17;;;12.20;82.20;;;;;;5043147;28;20202;-69
2021/04/15 11:56:12;;;;;;;3.33;2.05;;;12.20;83.20;;;;;;5044249;28;20252;-69
2021/04/15 11:58:38;;;;;;;2.75;1.85;;;12.20;83.70;;;;;;5047307;28;20845;-70
2021/04/15 12:01:05;;;;;;;2.50;2.30;;;12.20;83.90;;;;;;5053287;28;20229;-69
2021/04/15 12:03:33;;;;;;;3.67;2.33;;;12.20;84.50;;;;;;5043569;28;20207;-69
2021/04/15 12:06:06;;;;;;;3.13;1.98;;;12.30;85.20;;;;;;5046852;28;20207;-70
2021/04/15 12:08:34;;;;;;;2.45;1.80;;;12.30;84.00;;;;;;5040068;28;20211;-69
2021/04/15 12:11:04;;;;;;;4.07;2.25;;;12.30;85.20;;;;;;5048157;28;20199;-71
2021/04/15 12:13:36;;;;;;;5.88;2.33;;;12.30;86.60;;;;;;5044650;28;20195;-69
2021/04/15 12:16:12;;;;;;;2.75;2.00;;;12.30;83.10;;;;;;5047667;28;20261;-69
2021/04/15 12:18:42;;;;;;;3.15;2.40;;;12.30;82.90;;;;;;5045877;28;20698;-71
2021/04/15 12:21:18;;;;;;;3.35;2.10;;;12.30;76.90;;;;;;5043672;28;20198;-70
2021/04/15 12:23:49;;;;;;;5.80;2.40;;;12.30;80.10;;;;;;5041276;28;20306;-71
2021/04/15 12:26:23;;;;;;;3.30;2.38;;;12.30;77.50;;;;;;5038544;28;20233;-69
2021/04/15 12:29:00;;;;;;;3.17;1.88;;;12.30;75.80;;;;;;5047398;28;20207;-71
2021/04/15 12:31:32;;;;;;;4.80;1.80;;;12.30;76.30;;;;;;5046497;28;20269;-71
2021/04/15 12:34:36;;;;;;;2.08;1.48;;;12.30;78.50;;;;;;5044239;28;20202;-71
2021/04/15 12:37:12;;;;;;;6.05;1.60;;;12.30;80.00;;;;;;4972006;28;20212;-69
2021/04/15 12:39:51;;;;;;;3.25;1.75;;;12.40;78.40;;;;;;5032609;28;20552;-69
2021/04/15 12:42:22;;;;;;;3.08;2.10;;;12.30;76.10;;;;;;5049249;28;20191;-69
2021/04/15 12:44:49;;;;;;;3.25;2.08;;;12.40;75.40;;;;;;5046612;28;20647;-71
2021/04/15 12:47:17;;;;;;;2.75;1.88;;;12.40;75.80;;;;;;5035863;28;20207;-70
2021/04/15 12:49:44;;;;;;;6.63;2.05;;;12.30;77.50;;;;;;5049090;28;20214;-71
2021/04/15 12:52:13;;;;;;;3.38;1.45;;;12.40;79.30;;;;;;5044501;28;20654;-70
2021/04/15 12:54:41;;;;;;;5.47;1.80;;;12.40;80.30;;;;;;5045367;28;20207;-70
2021/04/15 12:57:09;;;;;;;3.90;2.13;;;12.40;78.60;;;;;;5046099;28;20221;-70
2021/04/15 12:59:38;;;;;;;2.92;2.20;;;12.40;79.10;;;;;;5036868;28;20195;-69
2021/04/15 13:02:10;;;;;;;2.55;1.60;;;12.40;75.80;;;;;;5039725;28;20199;-70
2021/04/15 13:04:46;;;;;;;4.55;2.20;;;12.40;77.20;;;;;;5040497;28;20547;-70
2021/04/15 13:07:29;;;;;;;3.30;2.55;;;12.40;79.00;;;;;;5033624;28;20203;-70
2021/04/15 13:10:28;;;;;;;5.35;2.30;;;12.40;79.90;;;;;;5048394;28;20219;-69
2021/04/15 13:12:56;;;;;;;3.25;1.90;;;12.40;80.60;;;;;;5040303;28;20260;-69
2021/04/15 13:15:39;;;;;;;4.15;1.80;;;12.50;81.70;;;;;;5039144;28;20207;-71
2021/04/15 13:18:07;;;;;;;3.15;2.03;;;12.50;79.10;;;;;;5044458;28;20213;-71
2021/04/15 13:20:41;;;;;;;6.95;1.70;;;12.50;76.30;;;;;;5039229;28;20257;-71
2021/04/15 13:23:32;;;;;;;6.97;2.15;;;12.40;74.00;;;;;;5047289;28;20214;-70
2021/04/15 13:26:30;;;;;;;3.65;2.10;;;12.40;75.00;;;;;;5036180;28;20190;-70
2021/04/15 13:29:21;;;;;;;1.60;1.50;;;12.40;77.50;;;;;;5037867;28;20211;-71
2021/04/15 13:32:03;;;;;;;5.78;2.00;;;12.30;76.50;;;;;;5041995;28;20198;-70
2021/04/15 13:34:46;;;;;;;1.88;1.67;;;12.30;77.00;;;;;;5040340;28;20657;-71